createdAt,value
2023-05-25T00:01:26.552Z,7.73
2023-05-25T00:04:05.453Z,6.60
2023-05-25T00:06:41.454Z,11.10
2023-05-25T00:09:13.709Z,6.87
2023-05-25T00:11:43.586Z,8.02
2023-05-25T00:14:16.438Z,10.97
2023-05-25T00:16:48.539Z,10.47
2023-05-25T00:19:18.851Z,6.27
2023-05-25T00:21:52.258Z,7.43
2023-05-25T00:24:22.166Z,4.90
2023-05-25T00:26:52.021Z,11.47
2023-05-25T00:29:21.840Z,9.13
2023-05-25T00:31:51.981Z,4.70
2023-05-25T00:34:22.108Z,9.50
2023-05-25T00:36:54.590Z,9.80
2023-05-25T00:39:24.600Z,12.53
2023-05-25T00:41:55.987Z,10.37
2023-05-25T00:44:25.871Z,8.13
2023-05-25T00:46:56.059Z,10.47
2023-05-25T00:49:26.019Z,11.20
2023-05-25T00:52:01.221Z,8.43
2023-05-25T00:54:33.742Z,10.03
2023-05-25T00:57:07.147Z,7.60
2023-05-25T00:59:43.515Z,10.27
2023-05-25T01:02:17.605Z,8.90
2023-05-25T01:04:52.759Z,8.20
2023-05-25T01:07:26.496Z,11.57
2023-05-25T01:10:01.839Z,12.60
2023-05-25T01:12:32.500Z,8.60
2023-05-25T01:15:04.881Z,9.50
2023-05-25T01:17:38.383Z,10.53
2023-05-25T01:20:11.948Z,11.23
2023-05-25T01:22:50.505Z,11.60
2023-05-25T01:25:30.656Z,15.33
2023-05-25T01:28:05.097Z,9.47
2023-05-25T01:30:36.199Z,11.93
2023-05-25T01:33:06.943Z,10.43
2023-05-25T01:35:42.519Z,6.73
2023-05-25T01:38:18.389Z,13.93
2023-05-25T01:40:51.129Z,10.50
2023-05-25T01:43:25.831Z,11.03
2023-05-25T01:46:01.607Z,8.67
2023-05-25T01:48:43.809Z,10.57
2023-05-25T01:51:29.481Z,9.33
2023-05-25T01:54:13.582Z,9.37
2023-05-25T01:56:49.976Z,12.57
2023-05-25T01:59:39.443Z,7.30
2023-05-25T02:02:17.553Z,9.60
2023-05-25T02:04:47.889Z,10.30
2023-05-25T02:09:51.536Z,9.93
2023-05-25T02:12:23.203Z,12.37
2023-05-25T02:14:53.087Z,12.10
2023-05-25T02:17:23.072Z,11.00
2023-05-25T02:19:56.690Z,10.63
2023-05-25T02:22:29.039Z,9.73
2023-05-25T02:25:04.268Z,11.40
2023-05-25T02:27:34.186Z,10.33
2023-05-25T02:30:05.984Z,11.03
2023-05-25T02:32:54.034Z,11.67
2023-05-25T02:35:26.136Z,11.30
2023-05-25T02:37:58.254Z,13.13
2023-05-25T03:14:25.584Z,11.90
2023-05-25T03:16:55.468Z,11.97
2023-05-25T03:19:25.336Z,11.10
2023-05-25T03:21:55.204Z,10.37
2023-05-25T03:24:25.108Z,11.53
2023-05-25T03:26:54.960Z,12.30
2023-05-25T03:29:27.486Z,10.27
2023-05-25T03:31:57.355Z,11.23
2023-05-25T03:34:27.392Z,8.87
2023-05-25T03:37:01.052Z,13.17
2023-05-25T03:39:30.906Z,11.37
2023-05-25T03:42:01.221Z,11.60
2023-05-25T03:44:33.683Z,12.50
2023-05-25T03:47:03.555Z,15.63
2023-05-25T03:49:33.572Z,11.47
2023-05-25T03:52:03.497Z,17.70
2023-05-25T03:54:33.358Z,11.43
2023-05-25T03:57:09.926Z,16.43
2023-05-25T03:59:42.425Z,14.03
2023-05-25T04:02:12.286Z,13.67
2023-05-25T04:04:45.577Z,12.77
2023-05-25T04:07:15.483Z,12.87
2023-05-25T04:09:45.355Z,15.33
2023-05-25T04:12:15.227Z,15.07
2023-05-25T04:14:47.682Z,12.80
2023-05-25T04:17:17.714Z,11.90
2023-05-25T04:19:47.609Z,7.70
2023-05-25T04:22:17.638Z,11.73
2023-05-25T04:24:47.981Z,11.70
2023-05-25T04:27:17.997Z,13.80
2023-05-25T04:29:50.914Z,12.10
2023-05-25T04:32:21.695Z,13.60
2023-05-25T04:34:51.614Z,10.50
2023-05-25T04:37:21.797Z,14.23
2023-05-25T04:39:51.831Z,12.73
2023-05-25T04:42:24.188Z,14.47
2023-05-25T04:44:56.660Z,12.33
2023-05-25T04:47:27.023Z,9.87
2023-05-25T04:49:56.904Z,9.33
2023-05-25T04:52:26.775Z,10.33
2023-05-25T04:54:56.682Z,9.07
2023-05-25T04:57:30.926Z,14.13
2023-05-25T05:00:03.505Z,10.23
2023-05-25T05:02:33.487Z,12.67
2023-05-25T05:05:04.094Z,12.50
2023-05-25T05:07:34.022Z,10.70
2023-05-25T05:10:03.867Z,13.53
2023-05-25T05:12:33.747Z,14.67
2023-05-25T05:15:06.545Z,12.30
2023-05-25T05:17:42.459Z,9.07
2023-05-25T05:20:15.295Z,12.40
2023-05-25T05:22:46.053Z,11.63
2023-05-25T05:25:15.929Z,11.43
2023-05-25T05:27:45.924Z,11.50
2023-05-25T05:30:19.201Z,13.73
2023-05-25T05:32:49.549Z,10.87
2023-05-25T05:35:19.751Z,8.30
2023-05-25T05:37:50.089Z,11.77
2023-05-25T05:40:20.116Z,10.93
2023-05-25T05:42:51.104Z,8.93
2023-05-25T05:45:23.586Z,11.23
2023-05-25T05:47:54.055Z,9.87
2023-05-25T05:50:24.447Z,9.87
2023-05-25T05:52:55.235Z,13.53
2023-05-25T05:55:25.186Z,12.93
2023-05-25T05:57:55.027Z,12.00
2023-05-25T06:00:27.846Z,13.50
2023-05-25T06:03:04.906Z,13.07
2023-05-25T06:05:34.908Z,12.48
2023-05-25T06:08:06.042Z,12.43
2023-05-25T06:10:36.197Z,11.67
2023-05-25T06:13:07.619Z,15.60
2023-05-25T06:15:40.870Z,13.43
2023-05-25T06:18:11.906Z,12.87
2023-05-25T06:20:42.163Z,10.33
2023-05-25T06:23:14.299Z,14.07
2023-05-25T06:25:46.890Z,11.30
2023-05-25T06:28:17.157Z,14.43
2023-05-25T06:30:49.651Z,11.50
2023-05-25T06:33:19.644Z,13.13
2023-05-25T06:35:51.049Z,8.37
2023-05-25T06:38:21.007Z,10.40
2023-05-25T06:40:50.813Z,12.70
2023-05-25T06:43:20.667Z,9.15
2023-05-25T06:45:54.733Z,12.40
2023-05-25T06:48:24.587Z,17.13
2023-05-25T06:50:54.457Z,15.63
2023-05-25T06:53:24.312Z,12.73
2023-05-25T06:55:54.210Z,11.27
2023-05-25T06:58:24.135Z,16.42
2023-05-25T07:00:57.745Z,19.27
2023-05-25T07:03:28.446Z,15.23
2023-05-25T07:05:58.520Z,18.43
2023-05-25T07:08:28.422Z,18.20
2023-05-25T07:10:58.299Z,13.17
2023-05-25T07:13:28.224Z,23.80
2023-05-25T07:16:00.721Z,12.23
2023-05-25T07:18:32.124Z,14.07
2023-05-25T07:21:02.372Z,18.00
2023-05-25T07:23:32.254Z,14.85
2023-05-25T07:26:04.211Z,20.25
2023-05-25T07:28:35.610Z,15.15
2023-05-25T07:31:09.720Z,17.10
2023-05-25T07:33:41.538Z,14.55
2023-05-25T07:36:12.787Z,17.07
2023-05-25T07:38:44.042Z,17.75
2023-05-25T07:41:14.904Z,19.73
2023-05-25T07:43:47.804Z,21.47
2023-05-25T07:46:25.460Z,19.50
2023-05-25T07:49:00.146Z,18.75
2023-05-25T07:51:35.994Z,22.00
2023-05-25T07:54:06.001Z,15.90
2023-05-25T07:56:35.918Z,13.27
2023-05-25T07:59:08.563Z,16.63
2023-05-25T08:01:41.072Z,17.27
2023-05-25T08:04:16.692Z,18.02
2023-05-25T08:06:53.243Z,17.08
2023-05-25T08:09:23.068Z,15.07
2023-05-25T08:12:07.710Z,14.20
2023-05-25T08:14:51.126Z,16.00
2023-05-25T08:17:23.939Z,19.37
2023-05-25T08:19:56.517Z,16.87
2023-05-25T08:22:29.266Z,17.20
2023-05-25T08:25:01.513Z,14.23
2023-05-25T08:27:33.492Z,16.48
2023-05-25T08:30:12.128Z,14.65
2023-05-25T08:32:46.838Z,14.27
2023-05-25T08:35:19.769Z,18.25
2023-05-25T08:37:49.732Z,16.40
2023-05-25T08:40:21.621Z,22.92
2023-05-25T08:42:54.211Z,15.85
2023-05-25T08:45:37.525Z,13.60
2023-05-25T08:48:31.751Z,19.60
2023-05-25T08:51:11.777Z,12.77
2023-05-25T08:53:43.739Z,15.90
2023-05-25T08:56:19.948Z,17.17
2023-05-25T08:59:01.091Z,16.70
2023-05-25T09:01:35.345Z,14.32
2023-05-25T09:04:14.330Z,18.52
2023-05-25T09:06:57.090Z,16.67
2023-05-25T09:09:32.718Z,14.05
2023-05-25T09:12:02.721Z,9.63
2023-05-25T09:14:32.807Z,13.25
2023-05-25T09:17:06.769Z,15.50
2023-05-25T09:19:39.607Z,14.60
2023-05-25T09:24:44.869Z,16.80
2023-05-25T09:27:18.404Z,15.53
2023-05-25T09:29:50.883Z,18.45
2023-05-25T09:32:21.879Z,15.10
2023-05-25T09:34:55.806Z,18.63
2023-05-25T09:37:26.232Z,22.60
2023-05-25T09:39:56.154Z,17.65
2023-05-25T09:42:26.407Z,15.30
2023-05-25T09:44:56.248Z,19.07
2023-05-25T09:47:26.137Z,12.13
2023-05-25T09:50:02.087Z,14.80
2023-05-25T09:52:31.912Z,15.52
2023-05-25T09:55:04.630Z,17.13
2023-05-25T09:57:34.533Z,26.53
2023-05-25T10:00:10.433Z,20.67
2023-05-25T10:02:41.456Z,16.65
2023-05-25T10:05:14.201Z,18.38
2023-05-25T10:07:49.326Z,20.23
2023-05-25T10:10:22.413Z,20.55
2023-05-25T10:12:55.903Z,19.40
2023-05-25T10:15:26.189Z,13.07
2023-05-25T10:17:57.998Z,13.70
2023-05-25T10:20:32.758Z,13.50
2023-05-25T10:23:08.205Z,18.08
2023-05-25T10:25:43.064Z,16.50
2023-05-25T10:28:20.322Z,21.63
2023-05-25T10:30:52.244Z,13.55
2023-05-25T10:33:24.058Z,15.70
2023-05-25T10:36:09.174Z,17.45
2023-05-25T10:38:47.885Z,18.58
2023-05-25T10:41:18.905Z,19.38
2023-05-25T10:43:55.485Z,22.47
2023-05-25T10:46:25.514Z,22.95
2023-05-25T10:49:00.914Z,19.65
2023-05-25T10:51:45.581Z,17.50
2023-05-25T10:54:19.115Z,19.10
2023-05-25T10:57:14.478Z,22.42
2023-05-25T10:59:51.133Z,22.48
2023-05-25T11:02:23.650Z,15.95
2023-05-25T11:04:53.827Z,15.50
2023-05-25T11:07:26.336Z,16.48
2023-05-25T11:10:01.773Z,13.65
2023-05-25T11:12:33.923Z,14.47
2023-05-25T11:15:17.571Z,12.68
2023-05-25T11:18:03.908Z,16.20
2023-05-25T11:20:38.317Z,12.98
2023-05-25T11:23:29.780Z,14.82
2023-05-25T11:26:08.224Z,14.87
2023-05-25T11:28:48.011Z,19.58
2023-05-25T11:31:18.005Z,15.30
2023-05-25T11:33:48.595Z,14.63
2023-05-25T11:36:20.672Z,16.07
2023-05-25T11:39:04.692Z,12.00
2023-05-25T11:41:43.806Z,17.08
2023-05-25T11:44:14.969Z,15.30
2023-05-25T11:46:49.928Z,16.80
2023-05-25T11:49:24.421Z,15.85
2023-05-25T11:51:56.975Z,17.90
2023-05-25T11:54:31.656Z,17.30
2023-05-25T11:57:02.903Z,19.45
2023-05-25T11:59:39.761Z,16.60
2023-05-25T12:02:09.752Z,12.63
2023-05-25T12:04:46.598Z,19.35
2023-05-25T12:07:16.487Z,16.58
2023-05-25T12:09:49.003Z,20.42
2023-05-25T12:12:19.734Z,12.88
2023-05-25T12:14:50.947Z,16.90
2023-05-25T12:17:21.959Z,14.60
2023-05-25T12:19:52.266Z,17.92
2023-05-25T12:22:22.962Z,17.67
2023-05-25T12:24:55.481Z,14.93
2023-05-25T12:27:26.035Z,19.05
2023-05-25T12:29:56.010Z,21.40
2023-05-25T12:32:25.950Z,19.80
2023-05-25T12:35:05.478Z,18.88
2023-05-25T12:37:36.199Z,21.83
2023-05-25T12:40:20.634Z,19.20
2023-05-25T12:42:59.091Z,18.83
2023-05-25T12:45:35.732Z,19.98
2023-05-25T12:48:05.687Z,15.77
2023-05-25T12:50:37.193Z,18.70
2023-05-25T12:53:07.661Z,16.33
2023-05-25T12:55:41.774Z,18.85
2023-05-25T12:58:31.195Z,18.08
2023-05-25T13:01:01.173Z,22.42
2023-05-25T13:03:32.686Z,17.50
2023-05-25T13:06:06.444Z,18.83
2023-05-25T13:08:36.378Z,18.25
2023-05-25T13:11:08.803Z,18.37
2023-05-25T13:13:38.658Z,16.17
2023-05-25T13:16:09.116Z,16.83
2023-05-25T13:18:39.028Z,20.05
2023-05-25T13:21:10.298Z,15.43
2023-05-25T13:23:40.203Z,20.35
2023-05-25T13:26:13.545Z,16.65
2023-05-25T13:28:43.690Z,26.27
2023-05-25T13:31:13.646Z,19.73
2023-05-25T13:33:43.527Z,20.08
2023-05-25T13:36:13.409Z,25.03
2023-05-25T13:38:43.262Z,21.80
2023-05-25T13:41:16.709Z,19.23
2023-05-25T13:43:46.656Z,20.50
2023-05-25T13:46:32.989Z,20.30
2023-05-25T13:49:04.399Z,20.63
2023-05-25T13:51:35.935Z,15.57
2023-05-25T13:54:05.932Z,16.80
2023-05-25T13:56:38.482Z,17.75
2023-05-25T13:59:08.360Z,20.60
2023-05-25T14:01:38.258Z,15.13
2023-05-25T14:04:11.979Z,18.90
2023-05-25T14:06:41.910Z,15.63
2023-05-25T14:09:13.579Z,17.90
2023-05-25T14:11:46.629Z,19.55
2023-05-25T14:14:29.990Z,15.57
2023-05-25T14:17:01.601Z,18.17
2023-05-25T14:19:33.847Z,20.50
2023-05-25T14:22:13.370Z,14.02
2023-05-25T14:24:49.809Z,19.93
2023-05-25T14:27:23.330Z,15.07
2023-05-25T14:29:58.083Z,19.10
2023-05-25T14:32:29.138Z,15.13
2023-05-25T14:35:10.419Z,14.47
2023-05-25T14:37:40.337Z,18.83
2023-05-25T14:40:11.537Z,18.90
2023-05-25T14:42:44.053Z,19.10
2023-05-25T14:45:16.124Z,21.77
2023-05-25T14:47:55.622Z,19.15
2023-05-25T14:50:34.165Z,13.57
2023-05-25T14:53:05.478Z,17.33
2023-05-25T14:55:35.342Z,16.25
2023-05-25T14:58:07.886Z,18.85
2023-05-25T15:00:37.922Z,18.70
2023-05-25T15:03:13.119Z,20.57
2023-05-25T15:05:43.933Z,16.95
2023-05-25T15:08:17.896Z,16.92
2023-05-25T15:10:47.845Z,18.77
2023-05-25T15:13:23.678Z,17.00
2023-05-25T15:15:57.909Z,17.60
2023-05-25T15:18:28.074Z,15.13
2023-05-25T15:21:00.307Z,13.35
2023-05-25T15:23:31.793Z,21.50
2023-05-25T15:26:04.480Z,21.13
2023-05-25T15:28:38.341Z,15.60
2023-05-25T15:31:11.363Z,19.87
2023-05-25T15:33:58.219Z,21.13
2023-05-25T15:36:33.235Z,20.93
2023-05-25T15:39:03.462Z,12.50
2023-05-25T15:41:45.012Z,22.93
2023-05-25T15:44:19.514Z,17.30
2023-05-25T15:46:50.595Z,15.73
2023-05-25T15:49:22.235Z,17.17
2023-05-25T15:51:53.539Z,19.13
2023-05-25T15:54:29.601Z,16.92
2023-05-25T15:57:08.609Z,19.77
2023-05-25T15:59:43.859Z,20.13
2023-05-25T16:02:16.923Z,17.80
2023-05-25T16:04:48.293Z,17.60
2023-05-25T16:07:25.583Z,18.00
2023-05-25T16:09:56.509Z,17.83
2023-05-25T16:12:28.696Z,21.70
2023-05-25T16:15:01.187Z,16.47
2023-05-25T16:17:35.774Z,18.85
2023-05-25T16:20:12.818Z,16.70
2023-05-25T16:22:42.757Z,14.82
2023-05-25T16:25:16.347Z,19.23
2023-05-25T16:27:50.966Z,17.50
2023-05-25T16:30:26.144Z,27.83
2023-05-25T16:32:59.449Z,15.82
2023-05-25T16:35:34.702Z,15.20
2023-05-25T16:38:06.861Z,20.40
2023-05-25T16:40:41.221Z,20.60
2023-05-25T16:43:11.147Z,22.87
2023-05-25T16:45:43.908Z,17.37
2023-05-25T16:48:15.606Z,16.13
2023-05-25T16:50:48.186Z,19.80
2023-05-25T16:53:20.897Z,20.93
2023-05-25T16:55:53.847Z,21.97
2023-05-25T16:58:24.963Z,14.73
2023-05-25T17:00:57.612Z,21.33
2023-05-25T17:03:35.645Z,19.53
2023-05-25T17:06:12.570Z,17.50
2023-05-25T17:09:03.872Z,15.33
2023-05-25T17:11:36.130Z,21.03
2023-05-25T17:14:06.199Z,21.03
2023-05-25T17:16:41.407Z,22.57
2023-05-25T17:19:15.380Z,19.47
2023-05-25T17:21:55.448Z,17.40
2023-05-25T17:24:25.272Z,16.30
2023-05-25T17:26:55.161Z,22.40
2023-05-25T17:29:26.650Z,16.80
2023-05-25T17:32:04.689Z,16.70
2023-05-25T17:34:34.693Z,22.03
2023-05-25T17:37:04.586Z,16.67
2023-05-25T17:39:37.909Z,25.57
2023-05-25T17:42:08.660Z,23.57
2023-05-25T17:44:42.724Z,18.47
2023-05-25T17:47:15.232Z,18.07
2023-05-25T17:50:03.485Z,20.17
2023-05-25T17:52:34.567Z,16.90
2023-05-25T17:55:09.701Z,23.33
2023-05-25T17:57:39.603Z,18.40
2023-05-25T18:00:13.632Z,14.67
2023-05-25T18:02:46.489Z,17.00
2023-05-25T18:05:16.392Z,19.77
2023-05-25T18:07:49.282Z,19.57
2023-05-25T18:10:25.570Z,19.60
2023-05-25T18:12:58.328Z,21.37
2023-05-25T18:15:35.771Z,18.30
2023-05-25T18:18:12.111Z,22.87
2023-05-25T18:20:42.866Z,23.23
2023-05-25T18:23:13.534Z,21.93
2023-05-25T18:25:43.487Z,21.63
2023-05-25T18:28:16.710Z,17.97
2023-05-25T18:30:49.381Z,16.53
2023-05-25T18:33:21.937Z,20.47
2023-05-25T18:35:51.805Z,19.97
2023-05-25T18:38:24.176Z,15.40
2023-05-25T18:40:56.505Z,21.33
2023-05-25T18:43:26.395Z,20.40
2023-05-25T18:45:56.339Z,17.60
2023-05-25T18:48:28.845Z,18.13
2023-05-25T18:51:03.308Z,22.77
2023-05-25T18:53:34.213Z,19.47
2023-05-25T18:56:06.436Z,15.93
2023-05-25T18:58:36.309Z,16.63
2023-05-25T19:01:16.097Z,19.80
2023-05-25T19:03:58.767Z,17.93
2023-05-25T19:06:33.749Z,19.60
2023-05-25T19:09:06.880Z,17.37
2023-05-25T19:11:40.128Z,21.03
2023-05-25T19:14:10.077Z,13.97
2023-05-25T19:16:42.693Z,21.03
2023-05-25T19:19:15.170Z,18.93
2023-05-25T19:21:49.451Z,18.13
2023-05-25T19:24:20.048Z,22.13
2023-05-25T19:26:50.078Z,22.47
2023-05-25T19:29:23.523Z,21.87
2023-05-25T19:31:54.774Z,15.93
2023-05-25T19:34:30.344Z,20.17
2023-05-25T19:37:10.596Z,20.73
2023-05-25T19:39:41.313Z,18.43
2023-05-25T19:42:18.731Z,24.27
2023-05-25T19:44:48.569Z,18.20
2023-05-25T19:47:18.456Z,20.53
2023-05-25T19:50:00.054Z,18.63
2023-05-25T19:52:31.012Z,19.20
2023-05-25T19:55:00.861Z,17.73
2023-05-25T19:57:33.365Z,20.63
2023-05-25T20:00:04.667Z,17.47
2023-05-25T20:02:41.782Z,20.73
2023-05-25T20:05:14.556Z,21.87
2023-05-25T20:07:47.603Z,20.10
2023-05-25T20:10:26.421Z,20.07
2023-05-25T20:13:00.828Z,21.10
2023-05-25T20:15:51.317Z,20.97
2023-05-25T20:18:21.262Z,16.20
2023-05-25T20:20:59.462Z,18.87
2023-05-25T20:23:30.504Z,20.47
2023-05-25T20:26:00.388Z,17.73
2023-05-25T20:28:30.237Z,24.43
2023-05-25T20:31:03.114Z,18.23
2023-05-25T20:33:33.066Z,18.23
2023-05-25T20:36:05.564Z,13.37
2023-05-25T20:38:35.385Z,19.77
2023-05-25T20:41:05.231Z,18.00
2023-05-25T20:43:38.229Z,20.73
2023-05-25T20:46:11.672Z,16.67
2023-05-25T20:48:45.901Z,20.70
2023-05-25T20:51:18.388Z,14.40
2023-05-25T20:53:49.587Z,17.87
2023-05-25T20:56:26.820Z,16.90
2023-05-25T21:13:41.244Z,18.83
2023-05-25T21:16:11.227Z,16.93
2023-05-25T21:18:41.117Z,17.90
2023-05-25T21:21:11.499Z,15.37
2023-05-25T21:23:41.677Z,15.73
2023-05-25T21:26:11.752Z,19.30
2023-05-25T21:28:46.555Z,17.13
2023-05-25T21:31:16.500Z,20.40
2023-05-25T21:33:47.598Z,17.73
2023-05-25T21:36:17.672Z,20.30
2023-05-25T21:38:47.641Z,18.77
2023-05-25T21:41:17.986Z,22.80
2023-05-25T21:43:51.074Z,24.03
2023-05-25T21:46:21.005Z,14.97
2023-05-25T21:48:50.943Z,18.87
2023-05-25T21:51:20.810Z,18.90
2023-05-25T21:53:50.822Z,19.00
2023-05-25T21:56:21.140Z,18.13
2023-05-25T21:58:53.681Z,21.37
2023-05-25T22:01:23.764Z,15.73
2023-05-25T22:03:53.871Z,21.40
2023-05-25T22:06:23.763Z,20.70
2023-05-25T22:08:53.679Z,20.77
2023-05-25T22:11:24.720Z,17.60
2023-05-25T22:13:57.815Z,20.50
2023-05-25T22:16:27.807Z,17.17
2023-05-25T22:19:02.249Z,21.83
2023-05-25T22:21:32.123Z,18.90
2023-05-25T22:24:02.366Z,14.97
2023-05-25T22:26:32.257Z,17.93
2023-05-25T22:29:04.787Z,19.37
2023-05-25T22:31:34.731Z,20.23
2023-05-25T22:34:05.461Z,23.27
2023-05-25T22:36:37.481Z,17.23
2023-05-25T22:39:07.584Z,19.67
2023-05-25T22:41:37.532Z,25.33
2023-05-25T22:44:10.195Z,18.57
2023-05-25T22:46:40.182Z,19.93
2023-05-25T22:49:10.148Z,21.70
2023-05-25T22:51:40.909Z,20.30
2023-05-25T22:54:10.765Z,30.43
2023-05-25T22:56:40.640Z,17.23
2023-05-25T22:59:13.111Z,20.03
2023-05-25T23:01:43.039Z,20.33
2023-05-25T23:04:13.149Z,18.27
2023-05-25T23:06:43.928Z,19.83
2023-05-25T23:09:13.972Z,22.07
2023-05-25T23:11:43.797Z,17.17
2023-05-25T23:14:21.604Z,15.50
2023-05-25T23:16:51.440Z,19.40
2023-05-25T23:19:21.334Z,21.47
2023-05-25T23:21:51.605Z,20.57
2023-05-25T23:24:21.473Z,21.20
2023-05-25T23:26:52.807Z,22.50
2023-05-25T23:29:25.289Z,19.33
2023-05-25T23:31:55.172Z,19.33
2023-05-25T23:34:25.782Z,16.13
2023-05-25T23:36:57.976Z,22.80
2023-05-25T23:39:28.003Z,19.63
2023-05-25T23:41:57.883Z,18.77
2023-05-25T23:44:30.313Z,25.73
2023-05-25T23:47:00.204Z,23.53
2023-05-25T23:49:30.061Z,18.20
2023-05-25T23:52:00.009Z,19.43
2023-05-25T23:54:29.891Z,23.00
2023-05-25T23:56:59.824Z,26.10
2023-05-25T23:59:34.575Z,19.37
